Time;durP1;ratioP1;P1;durP2;ratioP2;P2;SDS_P1;SDS_P2;PMS_P1;PMS_P2;Temp;Humidity;BMP_temperature;BMP_pressure;BME280_temperature;BME280_humidity;BME280_pressure;Samples;Min_cycle;Max_cycle;Signal;HPM_P1;HPM_P2
2023/07/29 00:01:08;;;;;;;5.67;4.37;;;18.10;99.90;;;;;;5017600;28;20175;-81
2023/07/29 00:03:34;;;;;;;4.70;4.30;;;18.10;99.90;;;;;;5017767;28;20229;-81
2023/07/29 00:05:59;;;;;;;4.73;4.33;;;18.10;99.90;;;;;;5017758;28;20676;-81
2023/07/29 00:08:25;;;;;;;5.33;4.93;;;18.10;99.90;;;;;;5017328;28;20229;-81
2023/07/29 00:10:51;;;;;;;5.10;4.70;;;18.10;99.90;;;;;;5017313;28;20166;-81
2023/07/29 00:13:16;;;;;;;4.40;4.10;;;18.10;99.90;;;;;;5017299;28;20177;-81
2023/07/29 00:15:42;;;;;;;4.27;3.87;;;18.00;99.90;;;;;;5018752;28;20178;-81
2023/07/29 00:18:07;;;;;;;4.37;3.97;;;18.00;99.90;;;;;;5017254;28;20199;-81
2023/07/29 00:20:33;;;;;;;4.97;3.97;;;18.00;99.90;;;;;;5017034;28;20197;-81
2023/07/29 00:22:59;;;;;;;5.87;3.83;;;18.00;99.90;;;;;;5017487;28;20218;-81
2023/07/29 00:25:25;;;;;;;4.40;3.80;;;18.00;99.90;;;;;;5018819;28;20179;-81
2023/07/29 00:27:50;;;;;;;5.13;4.00;;;18.00;99.90;;;;;;5017635;28;20182;-81
2023/07/29 00:30:16;;;;;;;4.53;3.90;;;18.00;99.90;;;;;;5017209;28;20214;-80
2023/07/29 00:32:42;;;;;;;3.97;3.50;;;18.00;99.90;;;;;;5016965;28;20171;-81
2023/07/29 00:35:08;;;;;;;3.90;3.50;;;17.90;99.90;;;;;;5014658;28;20282;-81
2023/07/29 00:37:33;;;;;;;4.33;3.80;;;17.90;99.90;;;;;;5014223;28;20195;-81
2023/07/29 00:39:59;;;;;;;3.90;3.60;;;17.90;99.90;;;;;;5014348;28;20198;-81
2023/07/29 00:42:25;;;;;;;7.23;3.70;;;17.90;99.90;;;;;;5015390;28;20221;-81
2023/07/29 00:44:50;;;;;;;4.93;3.33;;;17.80;99.90;;;;;;5014272;28;20186;-81
2023/07/29 00:47:16;;;;;;;3.50;3.20;;;17.80;99.90;;;;;;5013968;28;20176;-81
2023/07/29 00:49:44;;;;;;;4.07;3.50;;;17.80;99.90;;;;;;5015213;28;20654;-81
2023/07/29 00:52:12;;;;;;;4.80;3.53;;;17.70;99.90;;;;;;5015438;28;20245;-81
2023/07/29 00:54:38;;;;;;;3.70;3.30;;;17.80;99.90;;;;;;5015336;28;20262;-81
2023/07/29 00:57:05;;;;;;;3.30;2.97;;;17.80;99.90;;;;;;5015232;28;20194;-81
2023/07/29 00:59:31;;;;;;;3.77;3.23;;;17.80;99.90;;;;;;5014220;28;20199;-81
2023/07/29 01:01:58;;;;;;;3.10;2.90;;;17.80;99.90;;;;;;5014982;28;20175;-81
2023/07/29 01:04:23;;;;;;;3.60;3.30;;;17.80;99.90;;;;;;5015156;28;20593;-81
2023/07/29 01:06:55;;;;;;;3.40;3.13;;;17.80;99.90;;;;;;5013611;28;20242;-81
2023/07/29 01:09:31;;;;;;;4.00;3.40;;;17.80;99.90;;;;;;5013628;28;20199;-81
2023/07/29 01:12:22;;;;;;;4.03;3.13;;;17.80;99.90;;;;;;5013511;28;20616;-81
2023/07/29 01:15:19;;;;;;;4.43;3.53;;;17.80;99.90;;;;;;5013783;28;20179;-81
2023/07/29 01:18:10;;;;;;;3.67;3.37;;;17.90;99.90;;;;;;5013590;28;20278;-81
2023/07/29 01:20:40;;;;;;;4.00;3.70;;;17.80;99.90;;;;;;5007265;28;20183;-83
2023/07/29 01:23:05;;;;;;;4.07;3.77;;;17.90;99.90;;;;;;5013381;28;20185;-80
2023/07/29 01:25:31;;;;;;;4.10;3.80;;;17.90;99.90;;;;;;5014534;28;20179;-81
2023/07/29 01:27:57;;;;;;;4.73;4.33;;;17.90;99.90;;;;;;5013554;28;20174;-81
2023/07/29 01:30:37;;;;;;;5.37;4.20;;;17.90;99.90;;;;;;5014244;28;20666;-80
2023/07/29 01:33:24;;;;;;;5.17;4.20;;;17.90;99.90;;;;;;5013280;28;20190;-81
2023/07/29 01:36:12;;;;;;;4.50;4.10;;;17.90;99.90;;;;;;5014549;28;20171;-81
2023/07/29 01:38:40;;;;;;;5.60;4.27;;;17.90;99.90;;;;;;5013893;28;20245;-81
2023/07/29 01:41:08;;;;;;;4.00;3.60;;;17.90;99.90;;;;;;5012953;28;20175;-79
2023/07/29 01:43:34;;;;;;;3.70;3.30;;;18.00;99.90;;;;;;5013263;28;20175;-81
2023/07/29 01:46:02;;;;;;;3.60;3.30;;;17.90;99.90;;;;;;5013996;28;20198;-81
2023/07/29 01:48:30;;;;;;;3.50;3.20;;;17.90;99.90;;;;;;5013918;28;20266;-81
2023/07/29 01:50:56;;;;;;;4.30;3.30;;;17.90;99.90;;;;;;5014033;28;20187;-81
2023/07/29 01:53:21;;;;;;;4.90;3.03;;;17.90;99.90;;;;;;5012744;28;20179;-81
2023/07/29 01:55:47;;;;;;;4.87;3.00;;;17.90;99.90;;;;;;5012779;28;20293;-82
2023/07/29 01:58:14;;;;;;;2.93;2.73;;;18.00;99.90;;;;;;5012464;28;20333;-81
2023/07/29 02:00:39;;;;;;;4.57;3.00;;;18.00;99.90;;;;;;5012554;28;20171;-82
2023/07/29 02:03:05;;;;;;;3.10;2.90;;;18.00;99.90;;;;;;5012566;28;20179;-81
2023/07/29 02:05:30;;;;;;;3.00;2.80;;;18.00;99.90;;;;;;5013884;28;20187;-81
2023/07/29 02:07:56;;;;;;;3.83;2.73;;;18.00;99.90;;;;;;5013994;28;20260;-81
2023/07/29 02:10:22;;;;;;;3.73;2.90;;;18.00;99.90;;;;;;5012509;28;20198;-82
2023/07/29 02:12:47;;;;;;;4.13;2.80;;;18.00;99.90;;;;;;5013441;28;20664;-81
2023/07/29 02:15:14;;;;;;;3.33;2.90;;;18.00;99.90;;;;;;5013701;28;20289;-82
2023/07/29 02:17:41;;;;;;;4.40;2.70;;;18.00;99.90;;;;;;5013455;28;20293;-82
2023/07/29 02:20:08;;;;;;;6.33;3.33;;;18.00;99.90;;;;;;5013553;28;20206;-80
2023/07/29 02:22:34;;;;;;;3.73;2.70;;;18.00;99.90;;;;;;5013666;28;20213;-81
2023/07/29 02:24:59;;;;;;;4.77;3.13;;;18.00;99.90;;;;;;5013402;28;20172;-81
2023/07/29 02:27:27;;;;;;;3.13;2.80;;;18.00;99.90;;;;;;5012368;28;20240;-81
2023/07/29 02:29:53;;;;;;;3.07;2.80;;;18.00;99.90;;;;;;5013098;28;20213;-82
2023/07/29 02:32:18;;;;;;;3.53;2.70;;;18.00;99.90;;;;;;5013024;28;20629;-82
2023/07/29 02:34:44;;;;;;;3.13;2.93;;;18.00;99.90;;;;;;5011935;28;20175;-81
2023/07/29 02:37:10;;;;;;;5.33;2.70;;;18.00;99.90;;;;;;5013299;28;20175;-81
2023/07/29 02:39:36;;;;;;;3.47;2.70;;;17.90;99.90;;;;;;5013350;28;20199;-78
2023/07/29 02:42:01;;;;;;;3.20;2.90;;;17.90;99.90;;;;;;5013250;28;20179;-81
2023/07/29 02:44:27;;;;;;;3.77;2.53;;;17.90;99.90;;;;;;5011841;28;20169;-83
2023/07/29 02:46:54;;;;;;;3.77;2.70;;;17.90;99.90;;;;;;5011894;28;20186;-81
2023/07/29 02:49:20;;;;;;;2.70;2.50;;;18.00;99.90;;;;;;5012974;28;20191;-81
2023/07/29 02:51:45;;;;;;;4.20;2.80;;;18.00;99.90;;;;;;5011621;28;20167;-82
2023/07/29 02:54:11;;;;;;;4.37;3.00;;;18.00;99.90;;;;;;5011941;28;20731;-81
2023/07/29 02:56:36;;;;;;;3.10;2.80;;;18.00;99.90;;;;;;5011314;28;20171;-81
2023/07/29 02:59:02;;;;;;;4.57;2.60;;;18.00;99.90;;;;;;5011586;28;20214;-81
2023/07/29 03:01:27;;;;;;;4.07;2.63;;;18.00;99.90;;;;;;5012389;28;20173;-83
2023/07/29 03:03:53;;;;;;;2.70;2.50;;;18.00;99.90;;;;;;5012608;28;20194;-81
2023/07/29 03:06:19;;;;;;;3.23;2.67;;;18.00;99.90;;;;;;5011434;28;20556;-81
2023/07/29 03:08:44;;;;;;;2.90;2.70;;;17.90;99.90;;;;;;5011653;28;20289;-81
2023/07/29 03:11:12;;;;;;;3.10;2.83;;;18.00;99.90;;;;;;5011325;28;20189;-81
2023/07/29 03:13:38;;;;;;;3.10;2.80;;;18.00;99.90;;;;;;5011585;28;20171;-83
2023/07/29 03:16:12;;;;;;;2.90;2.70;;;18.00;99.90;;;;;;5011309;28;20233;-82
2023/07/29 03:18:37;;;;;;;2.93;2.73;;;18.00;99.90;;;;;;5012413;28;20635;-81
2023/07/29 03:21:03;;;;;;;4.17;2.87;;;18.00;99.90;;;;;;5012269;28;20657;-81
2023/07/29 03:23:30;;;;;;;2.90;2.70;;;18.00;99.90;;;;;;5011394;28;20167;-82
2023/07/29 03:25:58;;;;;;;2.73;2.53;;;18.00;99.90;;;;;;5012787;28;20167;-82
2023/07/29 03:28:29;;;;;;;2.90;2.53;;;18.00;99.90;;;;;;5012614;28;20175;-81
2023/07/29 03:30:55;;;;;;;2.90;2.70;;;17.90;99.90;;;;;;5012478;28;20241;-81
2023/07/29 03:33:21;;;;;;;3.13;2.60;;;17.90;99.90;;;;;;5011099;28;20266;-82
2023/07/29 03:35:47;;;;;;;2.50;2.30;;;17.90;99.90;;;;;;5011322;28;20290;-81
2023/07/29 03:38:12;;;;;;;2.53;2.33;;;17.90;99.90;;;;;;5012641;28;20199;-81
2023/07/29 03:40:39;;;;;;;5.40;2.40;;;17.90;99.90;;;;;;5010975;28;20546;-81
2023/07/29 03:43:05;;;;;;;2.83;2.60;;;18.00;99.90;;;;;;5012271;28;20175;-81
2023/07/29 03:45:31;;;;;;;2.53;2.33;;;18.00;99.90;;;;;;5011329;28;20167;-81
2023/07/29 03:47:56;;;;;;;3.40;2.50;;;18.00;99.90;;;;;;5012255;28;20643;-81
2023/07/29 03:50:22;;;;;;;2.80;2.60;;;18.00;99.90;;;;;;5010789;28;20206;-81
2023/07/29 03:52:47;;;;;;;3.50;2.30;;;18.00;99.90;;;;;;5011296;28;20185;-83
2023/07/29 03:55:13;;;;;;;2.50;2.30;;;18.00;99.90;;;;;;5012821;28;20171;-81
2023/07/29 03:57:39;;;;;;;2.80;2.60;;;17.90;99.90;;;;;;5010979;28;20209;-81
2023/07/29 04:00:05;;;;;;;2.50;2.30;;;17.90;99.90;;;;;;5012365;28;20199;-81
2023/07/29 04:02:31;;;;;;;2.40;2.20;;;17.90;99.90;;;;;;5010962;28;20179;-82
2023/07/29 04:04:56;;;;;;;2.40;2.20;;;18.00;99.90;;;;;;5012167;28;20225;-82
2023/07/29 04:07:22;;;;;;;2.40;2.17;;;17.90;99.90;;;;;;5012075;28;20179;-82
2023/07/29 04:09:48;;;;;;;2.43;2.23;;;17.90;99.90;;;;;;5014394;28;20234;-82
2023/07/29 04:12:14;;;;;;;2.30;2.10;;;17.90;99.90;;;;;;5016010;28;20187;-81
2023/07/29 04:14:40;;;;;;;2.40;2.20;;;18.00;99.90;;;;;;5015153;28;20290;-79
2023/07/29 04:17:06;;;;;;;2.40;2.20;;;18.00;99.90;;;;;;5014698;28;20175;-80
2023/07/29 04:19:32;;;;;;;2.80;2.30;;;18.00;99.90;;;;;;5014659;28;20248;-81
2023/07/29 04:21:57;;;;;;;3.67;2.53;;;17.90;99.90;;;;;;5015711;28;20167;-81
2023/07/29 04:24:23;;;;;;;3.57;2.30;;;18.00;99.90;;;;;;5016137;28;20171;-80
2023/07/29 04:26:49;;;;;;;2.53;2.33;;;18.00;99.90;;;;;;5015906;28;20193;-80
2023/07/29 04:29:15;;;;;;;2.57;2.10;;;18.10;99.90;;;;;;5041614;23;20218;-84
2023/07/29 04:31:40;;;;;;;3.27;2.30;;;18.00;99.90;;;;;;5036484;28;20170;-84
2023/07/29 04:34:06;;;;;;;2.17;2.00;;;18.00;99.90;;;;;;5018853;28;20201;-84
2023/07/29 04:36:31;;;;;;;2.40;2.20;;;18.10;99.90;;;;;;5019793;28;20172;-84
2023/07/29 04:38:57;;;;;;;2.73;2.30;;;18.10;99.90;;;;;;5018931;28;20240;-85
2023/07/29 04:41:22;;;;;;;2.27;2.10;;;18.10;99.90;;;;;;5037856;28;20193;-83
2023/07/29 04:43:49;;;;;;;2.20;2.00;;;18.10;99.90;;;;;;5020827;28;20178;-84
2023/07/29 04:46:15;;;;;;;2.40;2.20;;;18.20;99.90;;;;;;5038266;28;20170;-83
2023/07/29 04:48:41;;;;;;;2.30;2.10;;;18.10;99.90;;;;;;5038218;28;20212;-83
2023/07/29 04:51:06;;;;;;;2.47;2.07;;;18.20;99.90;;;;;;5038234;28;20200;-83
2023/07/29 04:53:32;;;;;;;2.30;2.10;;;18.20;99.90;;;;;;5019676;28;20185;-83
2023/07/29 04:55:58;;;;;;;2.03;1.93;;;18.20;99.90;;;;;;5036914;28;20177;-83
2023/07/29 04:58:23;;;;;;;2.07;1.93;;;18.10;99.90;;;;;;5037469;28;20241;-84
2023/07/29 05:00:49;;;;;;;3.07;2.03;;;18.10;99.90;;;;;;5019085;28;20190;-84
2023/07/29 05:03:15;;;;;;;2.00;1.80;;;18.00;99.90;;;;;;5018429;28;20166;-85
2023/07/29 05:05:40;;;;;;;2.17;1.87;;;18.10;99.90;;;;;;5036105;28;20228;-85
2023/07/29 05:08:06;;;;;;;1.83;1.73;;;18.10;99.90;;;;;;5035393;28;20170;-85
2023/07/29 05:10:31;;;;;;;1.63;1.53;;;18.10;99.90;;;;;;5017338;28;20224;-85
2023/07/29 05:12:57;;;;;;;2.13;1.90;;;18.10;99.90;;;;;;5016780;28;20657;-87
2023/07/29 05:15:22;;;;;;;2.60;1.80;;;18.10;99.90;;;;;;5034445;28;20201;-87
2023/07/29 05:17:48;;;;;;;2.00;1.80;;;18.10;99.90;;;;;;5016463;28;20209;-84
2023/07/29 05:20:14;;;;;;;2.60;2.00;;;18.10;99.90;;;;;;5033485;28;20197;-88
2023/07/29 05:22:39;;;;;;;1.90;1.80;;;18.10;99.90;;;;;;5017383;28;20179;-84
2023/07/29 05:25:05;;;;;;;2.33;2.07;;;18.10;99.90;;;;;;5019980;28;20561;-85
2023/07/29 05:27:31;;;;;;;1.70;1.60;;;18.20;99.90;;;;;;5036077;28;20170;-84
2023/07/29 05:29:57;;;;;;;1.93;1.83;;;18.20;99.90;;;;;;5035839;28;20225;-82
2023/07/29 05:32:22;;;;;;;2.07;1.80;;;18.20;99.90;;;;;;5019146;28;20174;-83
2023/07/29 05:34:48;;;;;;;1.90;1.80;;;18.20;99.90;;;;;;5035890;28;20183;-83
2023/07/29 05:37:13;;;;;;;2.00;1.80;;;18.20;99.90;;;;;;5018803;28;20193;-83
2023/07/29 05:39:39;;;;;;;1.77;1.67;;;18.20;99.90;;;;;;5035922;28;20230;-84
2023/07/29 05:42:05;;;;;;;1.70;1.60;;;18.30;99.90;;;;;;5017762;28;20166;-85
2023/07/29 05:44:31;;;;;;;2.00;1.70;;;18.30;99.90;;;;;;5036055;28;20177;-83
2023/07/29 05:46:57;;;;;;;2.37;1.60;;;18.30;99.90;;;;;;5037550;28;20269;-83
2023/07/29 05:49:22;;;;;;;2.00;1.73;;;18.30;99.90;;;;;;5036156;28;20575;-82
2023/07/29 05:51:48;;;;;;;1.60;1.50;;;18.20;99.90;;;;;;5018712;28;20185;-83
2023/07/29 05:54:13;;;;;;;2.10;1.90;;;18.20;99.90;;;;;;5018500;28;20181;-83
2023/07/29 05:56:39;;;;;;;1.70;1.60;;;18.20;99.90;;;;;;5016921;28;20233;-83
2023/07/29 05:59:04;;;;;;;1.80;1.70;;;18.20;99.90;;;;;;5017728;28;20206;-82
2023/07/29 06:01:30;;;;;;;1.97;1.83;;;18.30;99.90;;;;;;5017906;28;20179;-83
2023/07/29 06:03:56;;;;;;;2.10;1.90;;;18.30;99.90;;;;;;5018333;28;20201;-82
2023/07/29 06:06:23;;;;;;;1.87;1.77;;;18.30;99.90;;;;;;5018116;28;20181;-82
2023/07/29 06:08:49;;;;;;;2.00;1.80;;;18.40;99.90;;;;;;5035821;28;20186;-82
2023/07/29 06:11:15;;;;;;;1.87;1.63;;;18.40;99.90;;;;;;5035977;28;20274;-82
2023/07/29 06:13:40;;;;;;;1.70;1.60;;;18.40;99.90;;;;;;5036170;28;20202;-83
2023/07/29 06:16:06;;;;;;;1.97;1.77;;;18.40;99.90;;;;;;5018457;28;20182;-82
2023/07/29 06:18:31;;;;;;;2.07;1.87;;;18.50;99.90;;;;;;5035698;28;20205;-83
2023/07/29 06:20:57;;;;;;;1.80;1.70;;;18.50;99.90;;;;;;5035981;28;20600;-83
2023/07/29 06:23:22;;;;;;;2.53;1.90;;;18.60;99.90;;;;;;5035651;28;20185;-83
2023/07/29 06:25:48;;;;;;;1.90;1.80;;;18.60;99.90;;;;;;5018581;28;20178;-82
2023/07/29 06:28:13;;;;;;;2.07;1.90;;;18.70;99.90;;;;;;5035710;28;20179;-81
2023/07/29 06:30:39;;;;;;;3.10;1.83;;;18.70;99.90;;;;;;5017319;28;20711;-82
2023/07/29 06:33:05;;;;;;;2.00;1.90;;;18.80;99.90;;;;;;5034569;28;20549;-82
2023/07/29 06:35:30;;;;;;;2.83;1.80;;;18.80;99.90;;;;;;5017808;28;20200;-83
2023/07/29 06:37:56;;;;;;;2.10;1.80;;;18.80;99.90;;;;;;5017930;28;20583;-83
2023/07/29 06:40:21;;;;;;;3.17;2.00;;;18.80;99.90;;;;;;5017395;28;20214;-82
2023/07/29 06:42:47;;;;;;;1.90;1.80;;;18.80;99.90;;;;;;5036146;28;20171;-82
2023/07/29 06:45:12;;;;;;;6.03;1.90;;;18.90;99.90;;;;;;5018715;28;20281;-85
2023/07/29 06:47:38;;;;;;;4.45;1.90;;;18.90;99.90;;;;;;5036363;28;20162;-83
2023/07/29 06:50:04;;;;;;;2.90;2.10;;;18.90;99.90;;;;;;5018564;28;20281;-82
2023/07/29 06:52:30;;;;;;;3.55;2.00;;;18.80;99.90;;;;;;5035731;28;20181;-83
2023/07/29 06:54:55;;;;;;;2.20;2.00;;;18.90;99.90;;;;;;5017768;28;20173;-84
2023/07/29 06:57:21;;;;;;;2.40;2.20;;;18.90;99.90;;;;;;5017360;28;20200;-82
2023/07/29 06:59:46;;;;;;;2.43;2.23;;;18.90;99.90;;;;;;5017739;28;20607;-83
2023/07/29 07:02:13;;;;;;;3.67;2.23;;;18.90;99.90;;;;;;5036709;28;20174;-83
2023/07/29 07:04:38;;;;;;;2.50;2.15;;;18.90;99.90;;;;;;5018410;28;20175;-82
2023/07/29 07:07:04;;;;;;;2.30;2.10;;;18.90;99.90;;;;;;5036365;28;20176;-83
2023/07/29 07:09:30;;;;;;;2.93;2.00;;;18.90;99.90;;;;;;5018139;28;20233;-83
2023/07/29 07:11:55;;;;;;;2.50;2.30;;;19.00;99.90;;;;;;5018523;28;20185;-83
2023/07/29 07:14:21;;;;;;;2.92;2.08;;;19.00;99.90;;;;;;5018104;28;20170;-82
2023/07/29 07:16:46;;;;;;;2.10;2.00;;;19.00;99.90;;;;;;5035816;28;20174;-82
2023/07/29 07:19:12;;;;;;;2.53;2.20;;;19.00;99.90;;;;;;5017746;28;20700;-82
2023/07/29 07:21:37;;;;;;;3.35;2.65;;;19.00;99.90;;;;;;5017828;28;20178;-83
2023/07/29 07:24:03;;;;;;;3.13;2.28;;;19.00;99.90;;;;;;5036229;28;20166;-84
2023/07/29 07:26:28;;;;;;;2.85;1.90;;;19.00;99.90;;;;;;5018262;28;20193;-83
2023/07/29 07:28:54;;;;;;;2.40;2.20;;;19.10;99.90;;;;;;5035459;28;20715;-83
2023/07/29 07:31:19;;;;;;;3.15;2.50;;;19.10;99.90;;;;;;5018333;28;20189;-83
2023/07/29 07:33:45;;;;;;;2.40;2.20;;;19.10;99.90;;;;;;5036178;28;20181;-83
2023/07/29 07:36:11;;;;;;;2.50;2.30;;;19.10;99.90;;;;;;5017955;28;20174;-83
2023/07/29 07:38:36;;;;;;;3.45;2.25;;;19.10;99.90;;;;;;5035690;28;20639;-83
2023/07/29 07:41:02;;;;;;;2.42;2.15;;;19.10;99.90;;;;;;5017455;28;20171;-84
2023/07/29 07:43:28;;;;;;;6.80;2.42;;;19.10;99.90;;;;;;5019540;28;20232;-84
2023/07/29 07:46:01;;;;;;;3.25;2.55;;;19.10;99.90;;;;;;5038970;28;20544;-83
2023/07/29 07:48:27;;;;;;;2.78;2.58;;;19.10;99.90;;;;;;5020563;28;20178;-81
2023/07/29 07:50:53;;;;;;;2.63;2.40;;;19.10;99.90;;;;;;5019613;28;20194;-81
2023/07/29 07:53:19;;;;;;;2.88;2.58;;;19.10;99.90;;;;;;5019770;28;20175;-83
2023/07/29 07:55:45;;;;;;;3.53;2.65;;;19.10;99.90;;;;;;5019933;28;20217;-83
2023/07/29 07:58:11;;;;;;;2.77;2.57;;;19.10;99.90;;;;;;5021088;28;20198;-83
2023/07/29 08:00:36;;;;;;;2.73;2.50;;;19.00;99.90;;;;;;5020384;28;20190;-83
2023/07/29 08:03:02;;;;;;;3.20;2.90;;;19.00;99.90;;;;;;5020631;28;20277;-84
2023/07/29 08:05:27;;;;;;;3.03;2.55;;;19.00;99.90;;;;;;5038004;28;20179;-86
2023/07/29 08:07:53;;;;;;;2.92;2.72;;;18.90;99.90;;;;;;5019455;28;20295;-85
2023/07/29 08:10:19;;;;;;;2.90;2.60;;;18.80;99.90;;;;;;5018151;28;20633;-86
2023/07/29 08:12:44;;;;;;;6.30;3.17;;;18.80;99.90;;;;;;5018546;28;20174;-85
2023/07/29 08:15:10;;;;;;;2.70;2.30;;;18.70;99.90;;;;;;5018756;28;20205;-86
2023/07/29 08:17:35;;;;;;;4.40;2.60;;;18.70;99.90;;;;;;5017899;28;20202;-86
2023/07/29 08:20:01;;;;;;;2.63;2.42;;;18.70;99.90;;;;;;5018052;28;20191;-87
2023/07/29 08:22:26;;;;;;;2.90;2.70;;;18.70;99.90;;;;;;5017523;28;20183;-86
2023/07/29 08:24:52;;;;;;;3.30;3.00;;;18.70;99.90;;;;;;5035753;28;20167;-85
2023/07/29 08:27:18;;;;;;;3.30;3.00;;;18.70;99.90;;;;;;5037315;28;20594;-84
2023/07/29 08:29:43;;;;;;;3.60;3.30;;;18.60;99.90;;;;;;5038003;28;20213;-84
2023/07/29 08:32:09;;;;;;;5.33;3.10;;;18.60;99.90;;;;;;5040178;28;20185;-86
2023/07/29 08:34:34;;;;;;;3.37;3.07;;;18.60;99.90;;;;;;5019819;28;20257;-84
2023/07/29 08:37:00;;;;;;;3.70;3.10;;;18.70;99.90;;;;;;5018708;28;20189;-85
2023/07/29 08:39:27;;;;;;;3.25;2.95;;;18.70;99.90;;;;;;5019802;28;20210;-82
2023/07/29 08:42:04;;;;;;;3.40;3.10;;;18.80;99.90;;;;;;5037218;28;20181;-80
2023/07/29 08:44:41;;;;;;;5.15;3.22;;;18.80;99.90;;;;;;5019297;28;20178;-82
2023/07/29 08:47:07;;;;;;;3.60;3.20;;;18.90;99.90;;;;;;5024121;28;20189;-81
2023/07/29 08:49:33;;;;;;;3.80;3.28;;;18.90;99.90;;;;;;5018183;28;20190;-82
2023/07/29 08:52:00;;;;;;;3.42;3.13;;;19.00;99.90;;;;;;5030875;28;20189;-81
2023/07/29 08:54:26;;;;;;;3.70;3.40;;;19.10;99.90;;;;;;5037642;28;20197;-81
2023/07/29 08:56:52;;;;;;;3.57;3.27;;;19.20;99.90;;;;;;5019411;28;20174;-81
2023/07/29 08:59:19;;;;;;;3.38;3.17;;;19.20;99.90;;;;;;5018857;28;20229;-81
2023/07/29 09:01:44;;;;;;;4.32;3.53;;;19.20;99.90;;;;;;5037169;28;20174;-80
2023/07/29 09:04:10;;;;;;;3.42;3.13;;;19.40;99.90;;;;;;5036959;28;20541;-80
2023/07/29 09:06:38;;;;;;;3.67;3.10;;;19.50;99.90;;;;;;5036035;28;20174;-81
2023/07/29 09:09:04;;;;;;;3.28;3.08;;;19.50;99.90;;;;;;5036258;28;20220;-84
2023/07/29 09:11:30;;;;;;;3.13;2.53;;;19.60;99.90;;;;;;5016960;28;20174;-86
2023/07/29 09:13:56;;;;;;;4.65;2.40;;;19.60;99.90;;;;;;5034837;28;20182;-87
2023/07/29 09:16:22;;;;;;;3.15;2.33;;;19.60;99.90;;;;;;5016799;28;20179;-87
2023/07/29 09:18:50;;;;;;;2.33;2.22;;;19.60;99.90;;;;;;5016644;28;20552;-85
2023/07/29 09:21:17;;;;;;;2.63;2.20;;;19.60;99.90;;;;;;5017957;28;20208;-84
2023/07/29 09:23:44;;;;;;;2.40;1.85;;;19.70;99.90;;;;;;5020889;28;20664;-81
2023/07/29 09:26:11;;;;;;;1.80;1.70;;;19.70;99.90;;;;;;5020974;28;20232;-82
2023/07/29 09:28:38;;;;;;;2.15;1.70;;;19.80;99.90;;;;;;5021951;28;20224;-82
2023/07/29 09:31:04;;;;;;;1.73;1.63;;;19.80;99.90;;;;;;5019685;28;20266;-83
2023/07/29 09:33:35;;;;;;;2.53;1.85;;;19.80;99.90;;;;;;5037958;28;20198;-82
2023/07/29 09:36:01;;;;;;;2.15;1.90;;;19.80;99.90;;;;;;5039214;28;20188;-82
2023/07/29 09:38:28;;;;;;;1.98;1.80;;;19.90;99.90;;;;;;5022735;28;20297;-82
2023/07/29 09:40:58;;;;;;;2.03;1.90;;;20.00;99.90;;;;;;5040033;28;20190;-82
2023/07/29 09:43:30;;;;;;;2.45;2.25;;;20.00;99.90;;;;;;5022525;28;20170;-82
2023/07/29 09:46:00;;;;;;;2.60;2.40;;;20.20;99.90;;;;;;5040527;28;20186;-81
2023/07/29 09:48:25;;;;;;;2.92;2.20;;;20.60;99.90;;;;;;5022494;28;20232;-82
2023/07/29 09:50:51;;;;;;;2.25;1.75;;;20.90;99.90;;;;;;5021612;28;20194;-81
2023/07/29 09:53:17;;;;;;;2.30;2.10;;;20.80;99.90;;;;;;5022415;28;20236;-81
2023/07/29 09:55:48;;;;;;;4.88;2.10;;;20.80;99.90;;;;;;5022563;28;20186;-81
2023/07/29 09:58:14;;;;;;;2.97;2.20;;;21.10;99.90;;;;;;5039880;28;20198;-82
2023/07/29 10:00:40;;;;;;;2.03;1.92;;;21.20;99.90;;;;;;5022434;28;20194;-81
2023/07/29 10:03:07;;;;;;;2.40;2.20;;;21.20;99.90;;;;;;5040237;28;20272;-82
2023/07/29 10:05:34;;;;;;;2.00;1.90;;;21.30;99.90;;;;;;5022852;28;20225;-82
2023/07/29 10:08:01;;;;;;;2.75;2.13;;;21.40;99.90;;;;;;5041215;28;20186;-82
2023/07/29 10:10:28;;;;;;;2.90;2.10;;;21.50;99.90;;;;;;5039706;28;20194;-81
2023/07/29 10:12:54;;;;;;;2.30;2.10;;;21.50;99.90;;;;;;5020780;28;20504;-82
2023/07/29 10:15:21;;;;;;;2.58;2.20;;;21.60;99.90;;;;;;5021085;28;20317;-80
2023/07/29 10:17:47;;;;;;;2.45;2.00;;;21.90;99.90;;;;;;5038394;28;20205;-81
2023/07/29 10:20:13;;;;;;;1.80;1.70;;;22.00;99.90;;;;;;5020009;28;20609;-82
2023/07/29 10:22:40;;;;;;;2.38;2.10;;;21.80;99.90;;;;;;5038514;28;20182;-83
2023/07/29 10:25:16;;;;;;;2.17;1.98;;;21.90;99.90;;;;;;5037972;28;20586;-82
2023/07/29 10:27:49;;;;;;;2.20;2.00;;;21.90;99.90;;;;;;5036670;28;20212;-82
2023/07/29 10:30:15;;;;;;;2.00;1.80;;;21.80;99.90;;;;;;5022695;23;20229;-81
2023/07/29 10:32:45;;;;;;;2.47;2.17;;;21.60;99.90;;;;;;4995896;28;20170;-81
2023/07/29 10:35:12;;;;;;;2.40;2.20;;;21.40;99.90;;;;;;5013351;28;20600;-79
2023/07/29 10:37:39;;;;;;;2.35;2.15;;;21.50;99.90;;;;;;5013029;28;20198;-80
2023/07/29 10:40:07;;;;;;;4.03;2.20;;;21.60;99.90;;;;;;4995792;28;20202;-80
2023/07/29 10:42:32;;;;;;;2.60;2.40;;;21.80;99.90;;;;;;4996281;28;20262;-80
2023/07/29 10:44:58;;;;;;;2.30;2.10;;;21.90;99.90;;;;;;5013651;28;20239;-81
2023/07/29 10:47:29;;;;;;;2.47;2.13;;;21.90;99.90;;;;;;4996023;28;20183;-82
2023/07/29 10:49:58;;;;;;;2.10;1.92;;;22.20;99.90;;;;;;5013403;28;20225;-81
2023/07/29 10:52:32;;;;;;;2.30;2.10;;;22.30;99.90;;;;;;5013174;28;20170;-81
2023/07/29 10:54:58;;;;;;;2.92;2.30;;;22.30;64.00;;;;;;5013975;28;20250;-86
2023/07/29 10:57:35;;;;;;;2.20;2.00;;;22.20;99.90;;;;;;4996045;28;20673;-83
2023/07/29 11:00:03;;;;;;;2.42;2.22;;;22.50;76.50;;;;;;5012800;28;20194;-84
2023/07/29 11:02:34;;;;;;;2.30;2.10;;;22.90;1.00;;;;;;5013132;28;20195;-85
2023/07/29 11:05:15;;;;;;;2.80;2.10;;;23.20;1.00;;;;;;5013231;28;20642;-87
2023/07/29 11:07:45;;;;;;;2.28;2.08;;;23.40;1.00;;;;;;5013169;28;20166;-85
2023/07/29 11:10:12;;;;;;;3.05;2.40;;;23.70;1.00;;;;;;4995041;28;20287;-85
2023/07/29 11:12:53;;;;;;;1.90;1.80;;;23.80;1.00;;;;;;4995223;28;20599;-85
2023/07/29 11:15:24;;;;;;;3.08;1.90;;;23.90;1.00;;;;;;5013109;28;20166;-83
2023/07/29 11:17:53;;;;;;;3.40;2.00;;;23.90;1.00;;;;;;5012506;28;20205;-85
2023/07/29 11:20:21;;;;;;;1.90;1.80;;;23.80;99.90;;;;;;4995225;28;20190;-83
2023/07/29 11:22:47;;;;;;;1.95;1.80;;;23.60;99.90;;;;;;5012971;28;20167;-85
2023/07/29 11:25:16;;;;;;;2.20;2.00;;;23.80;1.00;;;;;;4995716;28;20317;-86
2023/07/29 11:27:42;;;;;;;2.13;1.80;;;23.80;99.90;;;;;;4995753;28;20175;-82
2023/07/29 11:30:10;;;;;;;2.47;1.90;;;23.70;99.90;;;;;;5013897;28;20226;-82
2023/07/29 11:32:37;;;;;;;2.00;1.90;;;23.60;1.00;;;;;;4996461;28;20266;-81
2023/07/29 11:35:10;;;;;;;2.10;1.90;;;23.80;1.00;;;;;;5014121;28;20249;-81
2023/07/29 11:37:37;;;;;;;1.90;1.70;;;24.10;1.00;;;;;;4996823;28;20249;-81
2023/07/29 11:40:04;;;;;;;1.77;1.67;;;24.20;99.90;;;;;;5013218;28;20197;-82
2023/07/29 11:42:34;;;;;;;1.80;1.70;;;24.30;99.90;;;;;;5013663;28;20164;-81
2023/07/29 11:45:00;;;;;;;2.00;1.90;;;24.00;99.90;;;;;;4995345;28;20277;-83
2023/07/29 11:47:26;;;;;;;1.63;1.50;;;24.30;1.00;;;;;;5003957;28;20242;-82
2023/07/29 11:49:52;;;;;;;2.95;1.58;;;24.30;1.00;;;;;;4996260;28;20222;-81
2023/07/29 11:52:19;;;;;;;2.92;1.60;;;24.40;99.90;;;;;;4996408;28;20206;-82
2023/07/29 11:54:46;;;;;;;1.63;1.52;;;24.50;99.90;;;;;;5013768;28;20266;-82
2023/07/29 11:57:13;;;;;;;1.77;1.67;;;24.30;42.50;;;;;;4995764;28;20266;-82
2023/07/29 11:59:39;;;;;;;1.75;1.65;;;23.90;99.90;;;;;;5013453;28;20217;-81
2023/07/29 12:02:13;;;;;;;1.75;1.65;;;23.50;99.90;;;;;;4995286;28;20176;-79
2023/07/29 12:04:39;;;;;;;1.75;1.60;;;23.30;1.00;;;;;;4994101;28;20179;-81
2023/07/29 12:07:06;;;;;;;1.58;1.48;;;23.00;1.00;;;;;;5010298;28;20171;-81
2023/07/29 12:09:33;;;;;;;2.88;1.75;;;23.00;99.90;;;;;;4992955;28;20206;-81
2023/07/29 12:11:58;;;;;;;2.95;1.75;;;22.80;1.00;;;;;;4992912;28;20175;-81
2023/07/29 12:14:31;;;;;;;1.60;1.50;;;22.80;1.00;;;;;;4993011;28;20182;-81
2023/07/29 12:17:00;;;;;;;1.80;1.70;;;22.70;1.00;;;;;;5010767;28;20198;-81
2023/07/29 12:19:32;;;;;;;2.00;1.50;;;22.60;1.00;;;;;;5010654;28;20219;-81
2023/07/29 12:21:58;;;;;;;1.50;1.40;;;22.50;1.00;;;;;;5012134;28;20171;-80
2023/07/29 12:24:24;;;;;;;1.70;1.60;;;22.50;1.00;;;;;;4994543;28;20220;-81
2023/07/29 12:26:49;;;;;;;1.60;1.50;;;22.50;1.00;;;;;;4994480;28;20187;-81
2023/07/29 12:29:16;;;;;;;1.50;1.40;;;22.40;1.00;;;;;;5011765;28;20531;-81
2023/07/29 12:31:42;;;;;;;1.70;1.60;;;22.50;8.30;;;;;;4997680;28;20201;-81
2023/07/29 12:34:08;;;;;;;2.85;1.70;;;22.30;99.90;;;;;;5015527;28;20179;-81
2023/07/29 12:36:44;;;;;;;1.85;1.75;;;22.30;99.90;;;;;;5015393;28;20339;-81
2023/07/29 12:39:24;;;;;;;1.73;1.60;;;22.50;99.90;;;;;;4997538;28;20558;-81
2023/07/29 12:41:51;;;;;;;1.50;1.40;;;22.40;99.90;;;;;;5015317;28;20166;-81
2023/07/29 12:44:17;;;;;;;2.45;1.20;;;22.30;20.50;;;;;;4997525;28;20178;-81
2023/07/29 12:46:43;;;;;;;3.72;1.20;;;21.40;1.00;;;;;;4997554;28;20171;-81